createdAt,value
2024-01-11T00:01:52.761Z,102011.17
2024-01-11T00:04:20.963Z,102017.88
2024-01-11T00:06:49.271Z,102018.69
2024-01-11T00:09:17.543Z,102016.34
2024-01-11T00:11:45.710Z,102009.99
2024-01-11T00:14:13.941Z,102003.31
2024-01-11T00:16:43.088Z,102003.45
2024-01-11T00:19:11.373Z,102001.56
2024-01-11T00:21:41.881Z,101985.40
2024-01-11T00:24:10.475Z,101975.30
2024-01-11T00:26:38.755Z,101975.79
2024-01-11T00:29:07.053Z,101975.23
2024-01-11T00:31:35.297Z,101968.09
2024-01-11T00:34:03.673Z,101964.73
2024-01-11T00:36:32.051Z,101957.86
2024-01-11T00:39:00.529Z,101951.39
2024-01-11T00:41:28.980Z,101960.94
2024-01-11T00:43:57.297Z,101967.50
2024-01-11T00:46:25.565Z,101969.94
2024-01-11T00:48:56.574Z,101973.71
2024-01-11T00:51:25.182Z,101975.70
2024-01-11T00:53:53.317Z,101984.00
2024-01-11T00:56:22.526Z,101986.23
2024-01-11T00:58:50.726Z,101980.20
2024-01-11T01:01:19.015Z,101965.80
2024-01-11T01:03:47.179Z,101952.48
2024-01-11T01:06:15.494Z,101952.73
2024-01-11T01:08:43.677Z,101958.43
2024-01-11T01:11:11.830Z,101956.94
2024-01-11T01:13:40.166Z,101955.92
2024-01-11T01:16:08.344Z,101949.45
2024-01-11T01:18:36.570Z,101948.45
2024-01-11T01:21:08.288Z,101937.02
2024-01-11T01:23:36.503Z,101946.02
2024-01-11T01:26:07.485Z,101947.17
2024-01-11T01:28:35.967Z,101955.70
2024-01-11T01:31:04.365Z,101963.06
2024-01-11T01:33:32.855Z,101955.83
2024-01-11T01:36:00.996Z,101946.92
2024-01-11T01:38:29.124Z,101944.99
2024-01-11T01:40:57.457Z,101938.35
2024-01-11T01:43:25.511Z,101935.45
2024-01-11T01:45:54.202Z,101933.27
2024-01-11T01:48:22.836Z,101931.34
2024-01-11T01:50:54.389Z,101936.35
2024-01-11T01:53:23.670Z,101938.36
2024-01-11T01:55:52.966Z,101937.95
2024-01-11T01:58:21.811Z,101935.30
2024-01-11T02:00:52.597Z,101932.46
2024-01-11T02:03:21.275Z,101930.78
2024-01-11T02:05:49.943Z,101921.44
2024-01-11T02:08:20.580Z,101914.40
2024-01-11T02:10:49.128Z,101905.06
2024-01-11T02:13:17.400Z,101902.48
2024-01-11T02:15:46.975Z,101894.59
2024-01-11T02:18:15.370Z,101887.67
2024-01-11T02:20:43.684Z,101882.58
2024-01-11T02:23:19.903Z,101873.29
2024-01-11T02:25:48.104Z,101863.62
2024-01-11T02:28:16.278Z,101854.29
2024-01-11T02:30:44.508Z,101855.05
2024-01-11T02:33:17.461Z,101867.57
2024-01-11T02:35:48.028Z,101877.32
2024-01-11T02:38:17.231Z,101871.95
2024-01-11T02:40:46.044Z,101858.95
2024-01-11T02:43:14.739Z,101858.98
2024-01-11T02:45:42.793Z,101864.25
2024-01-11T02:48:11.059Z,101865.14
2024-01-11T02:50:39.488Z,101855.89
2024-01-11T02:53:07.641Z,101861.04
2024-01-11T02:55:35.791Z,101863.14
2024-01-11T02:58:04.090Z,101869.77
2024-01-11T03:00:32.182Z,101866.48
2024-01-11T03:03:00.371Z,101866.31
2024-01-11T03:05:29.009Z,101874.23
2024-01-11T03:07:57.297Z,101885.73
2024-01-11T03:10:25.348Z,101889.27
2024-01-11T03:12:53.422Z,101900.54
2024-01-11T03:15:21.485Z,101904.52
2024-01-11T03:17:49.853Z,101905.88
2024-01-11T03:20:21.659Z,101907.63
2024-01-11T03:22:49.786Z,101905.80
2024-01-11T03:25:17.854Z,101902.98
2024-01-11T03:27:46.331Z,101896.63
2024-01-11T03:30:14.818Z,101894.91
2024-01-11T03:32:43.241Z,101892.35
2024-01-11T03:35:11.659Z,101899.27
2024-01-11T03:37:40.048Z,101904.77
2024-01-11T03:40:08.638Z,101905.51
2024-01-11T03:42:36.696Z,101901.32
2024-01-11T03:45:06.056Z,101898.66
2024-01-11T03:47:34.294Z,101890.83
2024-01-11T03:50:03.390Z,101886.00
2024-01-11T03:52:31.547Z,101885.57
2024-01-11T03:54:59.712Z,101884.59
2024-01-11T03:57:27.984Z,101886.27
2024-01-11T03:59:56.064Z,101889.81
2024-01-11T04:02:24.225Z,101883.32
2024-01-11T04:04:52.711Z,101879.90
2024-01-11T04:07:20.795Z,101873.07
2024-01-11T04:09:48.875Z,101858.55
2024-01-11T04:12:17.029Z,101864.68
2024-01-11T04:14:45.276Z,101875.54
2024-01-11T04:17:13.669Z,101861.37
2024-01-11T04:19:41.955Z,101850.36
2024-01-11T04:22:10.226Z,101848.31
2024-01-11T04:24:38.294Z,101842.85
2024-01-11T04:27:06.668Z,101842.06
2024-01-11T04:29:34.871Z,101846.86
2024-01-11T04:32:03.096Z,101842.34
2024-01-11T04:34:32.612Z,101835.08
2024-01-11T04:37:00.999Z,101840.52
2024-01-11T04:39:29.172Z,101839.83
2024-01-11T04:41:57.246Z,101832.07
2024-01-11T04:44:27.885Z,101824.13
2024-01-11T04:46:56.436Z,101820.14
2024-01-11T04:49:25.004Z,101830.27
2024-01-11T04:51:53.220Z,101840.52
2024-01-11T04:54:21.382Z,101847.84
2024-01-11T04:56:49.607Z,101845.20
2024-01-11T04:59:17.871Z,101831.30
2024-01-11T05:01:47.446Z,101813.17
2024-01-11T05:04:15.605Z,101813.02
2024-01-11T05:06:44.061Z,101803.17
2024-01-11T05:09:12.269Z,101794.19
2024-01-11T05:11:40.485Z,101792.75
2024-01-11T05:14:08.777Z,101798.43
2024-01-11T05:16:37.292Z,101810.80
2024-01-11T05:19:05.471Z,101813.70
2024-01-11T05:21:33.732Z,101801.25
2024-01-11T05:24:02.736Z,101793.10
2024-01-11T05:26:31.200Z,101793.42
2024-01-11T05:28:59.962Z,101782.68
2024-01-11T05:31:28.242Z,101775.05
2024-01-11T05:33:56.642Z,101769.20
2024-01-11T05:36:25.131Z,101764.38
2024-01-11T05:38:53.196Z,101760.06
2024-01-11T05:41:21.279Z,101747.89
2024-01-11T05:43:49.441Z,101736.87
2024-01-11T05:46:17.510Z,101731.32
2024-01-11T05:48:45.811Z,101744.08
2024-01-11T05:51:14.064Z,101749.32
2024-01-11T05:53:42.245Z,101748.88
2024-01-11T05:56:12.133Z,101737.97
2024-01-11T05:58:41.400Z,101738.57
2024-01-11T06:01:10.331Z,101747.16
2024-01-11T06:03:39.916Z,101746.01
2024-01-11T06:06:08.653Z,101749.02
2024-01-11T06:08:36.944Z,101748.25
2024-01-11T06:11:05.789Z,101751.83
2024-01-11T06:13:34.276Z,101753.59
2024-01-11T06:16:02.851Z,101749.29
2024-01-11T06:18:32.036Z,101742.64
2024-01-11T06:21:00.328Z,101741.33
2024-01-11T06:23:28.966Z,101745.65
2024-01-11T06:25:57.423Z,101738.67
2024-01-11T06:28:25.562Z,101740.52
2024-01-11T06:30:55.104Z,101746.12
2024-01-11T06:33:23.505Z,101744.93
2024-01-11T06:35:51.983Z,101758.52
2024-01-11T06:38:20.220Z,101752.54
2024-01-11T06:40:50.015Z,101746.98
2024-01-11T06:43:18.040Z,101744.05
2024-01-11T06:45:46.289Z,101738.11
2024-01-11T06:48:14.587Z,101716.41
2024-01-11T06:50:43.049Z,101708.15
2024-01-11T06:53:11.300Z,101724.98
2024-01-11T06:55:39.582Z,101731.98
2024-01-11T06:58:07.937Z,101720.80
2024-01-11T07:00:36.914Z,101702.38
2024-01-11T07:03:05.085Z,101692.38
2024-01-11T07:05:33.570Z,101681.91
2024-01-11T07:08:01.779Z,101674.71
2024-01-11T07:10:30.024Z,101673.92
2024-01-11T07:12:58.145Z,101680.73
2024-01-11T07:15:26.471Z,101675.61
2024-01-11T07:17:54.991Z,101675.43
2024-01-11T07:20:23.278Z,101667.88
2024-01-11T07:22:51.513Z,101667.83
2024-01-11T07:25:19.567Z,101666.09
2024-01-11T07:27:47.599Z,101672.19
2024-01-11T07:30:16.411Z,101664.35
2024-01-11T07:32:44.893Z,101672.75
2024-01-11T07:35:17.658Z,101669.52
2024-01-11T07:37:47.301Z,101669.45
2024-01-11T07:40:15.620Z,101672.60
2024-01-11T07:42:44.447Z,101661.86
2024-01-11T07:45:12.677Z,101654.52
2024-01-11T07:47:41.481Z,101658.95
2024-01-11T07:50:16.684Z,101669.77
2024-01-11T07:52:44.921Z,101672.08
2024-01-11T07:55:14.263Z,101674.65
2024-01-11T07:57:42.850Z,101667.75
2024-01-11T08:00:11.396Z,101663.88
2024-01-11T08:02:42.376Z,101661.13
2024-01-11T08:05:10.994Z,101667.67
2024-01-11T08:07:39.701Z,101660.88
2024-01-11T08:10:08.486Z,101655.27
2024-01-11T08:12:37.628Z,101651.77
2024-01-11T08:15:06.549Z,101651.64
2024-01-11T08:17:34.711Z,101662.92
2024-01-11T08:20:03.045Z,101669.64
2024-01-11T08:22:35.071Z,101659.89
2024-01-11T08:25:05.870Z,101655.66
2024-01-11T08:27:34.901Z,101646.77
2024-01-11T08:30:03.683Z,101644.08
2024-01-11T08:32:32.764Z,101649.08
2024-01-11T08:35:01.441Z,101660.34
2024-01-11T08:37:29.764Z,101676.21
2024-01-11T08:39:57.807Z,101675.27
2024-01-11T08:42:26.003Z,101673.84
2024-01-11T08:44:54.263Z,101676.03
2024-01-11T08:47:22.615Z,101678.59
2024-01-11T08:49:51.435Z,101681.73
2024-01-11T08:52:19.428Z,101678.80
2024-01-11T08:54:47.669Z,101673.56
2024-01-11T08:57:16.372Z,101679.39
2024-01-11T08:59:44.716Z,101685.30
2024-01-11T09:02:16.750Z,101686.89
2024-01-11T09:04:48.946Z,101684.44
2024-01-11T09:07:17.543Z,101686.30
2024-01-11T09:09:53.664Z,101687.80
2024-01-11T09:12:25.174Z,101685.41
2024-01-11T09:14:53.615Z,101685.02
2024-01-11T09:17:23.206Z,101693.23
2024-01-11T09:19:52.226Z,101697.63
2024-01-11T09:22:20.510Z,101697.36
2024-01-11T09:24:48.686Z,101694.48
2024-01-11T09:27:17.051Z,101696.11
2024-01-11T09:29:46.102Z,101689.38
2024-01-11T09:32:14.601Z,101697.09
2024-01-11T09:34:42.988Z,101695.34
2024-01-11T09:37:11.178Z,101691.59
2024-01-11T09:39:39.616Z,101682.63
2024-01-11T09:42:08.752Z,101674.02
2024-01-11T09:44:41.006Z,101662.23
2024-01-11T09:47:11.734Z,101660.88
2024-01-11T09:49:43.940Z,101663.41
2024-01-11T09:52:14.396Z,101655.66
2024-01-11T09:54:42.925Z,101652.56
2024-01-11T09:57:11.314Z,101659.18
2024-01-11T09:59:39.630Z,101661.19
2024-01-11T10:02:11.096Z,101648.22
2024-01-11T10:04:39.302Z,101643.65
2024-01-11T10:07:08.189Z,101644.20
2024-01-11T10:09:36.879Z,101635.27
2024-01-11T10:12:06.317Z,101640.38
2024-01-11T10:14:35.039Z,101643.89
2024-01-11T10:17:03.279Z,101638.52
2024-01-11T10:19:31.694Z,101636.45
2024-01-11T10:22:00.708Z,101634.11
2024-01-11T10:24:29.768Z,101630.83
2024-01-11T10:26:59.706Z,101633.73
2024-01-11T10:29:32.024Z,101637.60
2024-01-11T10:32:00.696Z,101639.46
2024-01-11T10:34:29.080Z,101639.44
2024-01-11T10:36:58.147Z,101642.55
2024-01-11T10:39:27.564Z,101651.92
2024-01-11T10:42:07.094Z,101658.52
2024-01-11T10:44:37.394Z,101647.41
2024-01-11T10:47:09.112Z,101641.25
2024-01-11T10:49:41.342Z,101636.59
2024-01-11T10:52:09.904Z,101643.98
2024-01-11T10:54:38.422Z,101653.14
2024-01-11T10:57:06.965Z,101655.09
2024-01-11T10:59:36.806Z,101651.60
2024-01-11T11:02:07.857Z,101646.40
2024-01-11T11:04:37.325Z,101644.23
2024-01-11T11:07:08.976Z,101644.14
2024-01-11T11:09:38.638Z,101646.88
2024-01-11T11:12:07.366Z,101640.42
2024-01-11T11:14:36.625Z,101643.41
2024-01-11T11:17:05.774Z,101635.85
2024-01-11T11:19:34.085Z,101636.86
2024-01-11T11:22:06.251Z,101643.36
2024-01-11T11:24:37.576Z,101636.77
2024-01-11T11:27:06.851Z,101633.06
2024-01-11T11:29:35.090Z,101640.59
2024-01-11T11:32:04.612Z,101637.73
2024-01-11T11:34:46.587Z,101634.60
2024-01-11T11:37:24.451Z,101630.61
2024-01-11T11:39:53.114Z,101622.05
2024-01-11T11:42:26.000Z,101618.05
2024-01-11T11:44:54.296Z,101613.73
2024-01-11T11:47:24.575Z,101607.17
2024-01-11T11:50:04.665Z,101606.25
2024-01-11T11:52:37.979Z,101597.61
2024-01-11T11:55:10.000Z,101593.96
2024-01-11T11:57:38.165Z,101595.48
2024-01-11T12:00:07.861Z,101592.71
2024-01-11T12:02:43.132Z,101587.06
2024-01-11T12:05:11.598Z,101592.30
2024-01-11T12:07:39.978Z,101595.98
2024-01-11T12:10:08.240Z,101592.80
2024-01-11T12:12:38.975Z,101601.14
2024-01-11T12:15:07.871Z,101602.81
2024-01-11T12:17:36.146Z,101607.12
2024-01-11T12:20:05.052Z,101604.17
2024-01-11T12:22:33.405Z,101598.11
2024-01-11T12:25:02.619Z,101604.35
2024-01-11T12:27:31.855Z,101610.49
2024-01-11T12:30:00.236Z,101606.71
2024-01-11T12:32:31.222Z,101608.73
2024-01-11T12:34:59.663Z,101611.60
2024-01-11T12:37:28.183Z,101606.95
2024-01-11T12:39:59.885Z,101599.87
2024-01-11T12:42:30.873Z,101608.05
2024-01-11T12:44:59.774Z,101604.77
2024-01-11T12:47:28.961Z,101600.27
2024-01-11T12:49:57.658Z,101596.11
2024-01-11T12:52:28.758Z,101596.13
2024-01-11T12:54:58.158Z,101590.96
2024-01-11T12:57:26.520Z,101590.79
2024-01-11T12:59:54.942Z,101589.55
2024-01-11T13:02:23.066Z,101590.02
2024-01-11T13:04:52.112Z,101597.20
2024-01-11T13:07:20.483Z,101597.52
2024-01-11T13:09:48.702Z,101594.16
2024-01-11T13:12:16.821Z,101587.13
2024-01-11T13:14:45.077Z,101590.55
2024-01-11T13:17:13.505Z,101580.30
2024-01-11T13:19:41.759Z,101579.84
2024-01-11T13:22:10.236Z,101592.41
2024-01-11T13:24:38.307Z,101594.57
2024-01-11T13:27:06.657Z,101599.39
2024-01-11T13:29:35.178Z,101603.09
2024-01-11T13:32:05.762Z,101606.02
2024-01-11T13:34:34.061Z,101605.00
2024-01-11T13:37:02.442Z,101609.17
2024-01-11T13:39:30.611Z,101599.61
2024-01-11T13:41:59.617Z,101598.69
2024-01-11T13:44:28.067Z,101595.44
2024-01-11T13:46:56.466Z,101598.66
2024-01-11T13:49:26.580Z,101592.10
2024-01-11T13:52:00.914Z,101590.80
2024-01-11T13:54:30.335Z,101586.30
2024-01-11T13:56:58.483Z,101588.84
2024-01-11T13:59:27.402Z,101590.21
2024-01-11T14:01:55.639Z,101590.58
2024-01-11T14:04:25.180Z,101592.33
2024-01-11T14:06:54.012Z,101590.27
2024-01-11T14:09:23.633Z,101592.02
2024-01-11T14:11:51.839Z,101588.89
2024-01-11T14:14:22.032Z,101596.64
2024-01-11T14:16:50.408Z,101597.21
2024-01-11T14:19:18.770Z,101590.45
2024-01-11T14:21:47.081Z,101592.39
2024-01-11T14:24:18.207Z,101595.40
2024-01-11T14:26:51.490Z,101596.77
2024-01-11T14:29:19.591Z,101592.98
2024-01-11T14:31:47.839Z,101591.92
2024-01-11T14:34:16.025Z,101592.96
2024-01-11T14:36:44.187Z,101599.13
2024-01-11T14:39:12.373Z,101607.94
2024-01-11T14:41:40.479Z,101619.49
2024-01-11T14:44:09.063Z,101631.08
2024-01-11T14:46:37.207Z,101635.58
2024-01-11T14:49:05.911Z,101641.98
2024-01-11T14:51:35.261Z,101638.98
2024-01-11T14:54:05.096Z,101635.65
2024-01-11T14:56:33.532Z,101628.63
2024-01-11T14:59:03.329Z,101629.98
2024-01-11T15:01:32.302Z,101630.77
2024-01-11T15:04:00.682Z,101633.97
2024-01-11T15:06:29.213Z,101642.43
2024-01-11T15:08:57.848Z,101653.94
2024-01-11T15:11:27.060Z,101653.87
2024-01-11T15:13:55.271Z,101653.79
2024-01-11T15:16:23.957Z,101651.42
2024-01-11T15:18:52.260Z,101655.09
2024-01-11T15:21:20.396Z,101662.46
2024-01-11T15:23:48.597Z,101670.84
2024-01-11T15:26:16.971Z,101675.35
2024-01-11T15:28:45.143Z,101674.86
2024-01-11T15:31:13.256Z,101669.56
2024-01-11T15:33:41.707Z,101667.84
2024-01-11T15:36:11.077Z,101665.55
2024-01-11T15:38:39.418Z,101661.65
2024-01-11T15:41:07.664Z,101663.23
2024-01-11T15:43:37.059Z,101665.48
2024-01-11T15:46:05.914Z,101665.02
2024-01-11T15:48:34.251Z,101664.89
2024-01-11T15:51:05.246Z,101655.03
2024-01-11T15:53:33.652Z,101653.17
2024-01-11T15:56:02.389Z,101658.84
2024-01-11T15:58:30.463Z,101663.09
2024-01-11T16:00:58.556Z,101668.08
2024-01-11T16:03:26.711Z,101672.03
2024-01-11T16:05:55.408Z,101673.26
2024-01-11T16:08:23.695Z,101682.66
2024-01-11T16:10:52.054Z,101695.71
2024-01-11T16:13:20.225Z,101700.59
2024-01-11T16:15:49.415Z,101709.02
2024-01-11T16:18:19.167Z,101712.85
2024-01-11T16:20:47.645Z,101703.52
2024-01-11T16:23:16.009Z,101694.55
2024-01-11T16:25:44.151Z,101684.37
2024-01-11T16:28:12.219Z,101679.48
2024-01-11T16:30:40.526Z,101676.80
2024-01-11T16:33:10.311Z,101674.30
2024-01-11T16:35:45.140Z,101667.67
2024-01-11T16:38:20.620Z,101666.88
2024-01-11T16:40:49.369Z,101670.89
2024-01-11T16:43:17.740Z,101677.07
2024-01-11T16:45:45.916Z,101678.63
2024-01-11T16:48:18.618Z,101678.64
2024-01-11T16:50:48.617Z,101679.52
2024-01-11T16:53:17.111Z,101687.77
2024-01-11T16:55:45.886Z,101687.74
2024-01-11T16:58:14.264Z,101688.39
2024-01-11T17:00:43.297Z,101686.70
2024-01-11T17:03:11.734Z,101689.77
2024-01-11T17:05:40.225Z,101679.66
2024-01-11T17:08:08.615Z,101679.35
2024-01-11T17:10:39.062Z,101676.95
2024-01-11T17:13:07.483Z,101674.05
2024-01-11T17:15:36.378Z,101675.48
2024-01-11T17:18:05.113Z,101681.23
2024-01-11T17:20:33.249Z,101683.08
2024-01-11T17:23:01.542Z,101687.02
2024-01-11T17:25:29.791Z,101691.35
2024-01-11T17:27:57.957Z,101694.14
2024-01-11T17:30:26.271Z,101692.58
2024-01-11T17:32:55.827Z,101689.16
2024-01-11T17:35:24.975Z,101685.42
2024-01-11T17:37:53.209Z,101682.27
2024-01-11T17:40:21.297Z,101674.60
2024-01-11T17:42:49.553Z,101666.59
2024-01-11T17:45:17.823Z,101658.26
2024-01-11T17:47:46.420Z,101651.77
2024-01-11T17:50:15.143Z,101641.53
2024-01-11T17:52:45.970Z,101631.64
2024-01-11T17:55:15.327Z,101626.55
2024-01-11T17:57:43.710Z,101628.70
2024-01-11T18:00:13.971Z,101631.02
2024-01-11T18:02:42.194Z,101631.77
2024-01-11T18:05:10.885Z,101642.48
2024-01-11T18:07:39.274Z,101658.73
2024-01-11T18:10:08.147Z,101664.91
2024-01-11T18:12:36.220Z,101670.58
2024-01-11T18:15:04.953Z,101668.07
2024-01-11T18:17:33.271Z,101668.11
2024-01-11T18:20:01.654Z,101662.46
2024-01-11T18:22:31.612Z,101657.98
2024-01-11T18:25:01.083Z,101654.21
2024-01-11T18:27:29.456Z,101646.14
2024-01-11T18:29:58.442Z,101646.02
2024-01-11T18:32:26.800Z,101647.68
2024-01-11T18:34:57.128Z,101639.32
2024-01-11T18:37:27.163Z,101640.67
2024-01-11T18:39:55.228Z,101638.10
2024-01-11T18:42:25.094Z,101645.32
2024-01-11T18:44:54.904Z,101647.69
2024-01-11T18:47:23.196Z,101650.11
2024-01-11T18:49:51.399Z,101653.73
2024-01-11T18:52:19.679Z,101661.14
2024-01-11T18:54:54.197Z,101662.36
2024-01-11T18:57:26.484Z,101662.98
2024-01-11T18:59:56.458Z,101655.30
2024-01-11T19:02:24.772Z,101643.83
2024-01-11T19:04:52.965Z,101654.89
2024-01-11T19:07:21.540Z,101663.23
2024-01-11T19:09:49.703Z,101666.77
2024-01-11T19:12:17.778Z,101668.96
2024-01-11T19:14:46.850Z,101668.77
2024-01-11T19:17:15.660Z,101671.85
2024-01-11T19:19:43.926Z,101669.29
2024-01-11T19:22:12.290Z,101669.95
2024-01-11T19:24:40.563Z,101672.32
2024-01-11T19:27:08.842Z,101671.61
2024-01-11T19:29:36.933Z,101670.72
2024-01-11T19:32:05.508Z,101668.92
2024-01-11T19:34:33.703Z,101671.61
2024-01-11T19:37:02.768Z,101675.88
2024-01-11T19:39:30.927Z,101674.63
2024-01-11T19:42:00.300Z,101678.57
2024-01-11T19:44:28.873Z,101681.16
2024-01-11T19:46:57.292Z,101681.20
2024-01-11T19:49:25.587Z,101682.74
2024-01-11T19:51:53.851Z,101680.95
2024-01-11T19:54:22.120Z,101684.22
2024-01-11T19:56:50.229Z,101686.84
2024-01-11T19:59:19.438Z,101691.17
2024-01-11T20:01:47.572Z,101694.60
2024-01-11T20:04:15.842Z,101695.63
2024-01-11T20:06:44.748Z,101692.89
2024-01-11T20:09:16.694Z,101698.37
2024-01-11T20:11:45.330Z,101698.18
2024-01-11T20:14:13.875Z,101698.38
2024-01-11T20:16:42.221Z,101701.71
2024-01-11T20:19:10.459Z,101707.20
2024-01-11T20:21:38.676Z,101707.95
2024-01-11T20:24:07.249Z,101705.73
2024-01-11T20:26:35.589Z,101706.61
2024-01-11T20:29:03.797Z,101708.55
2024-01-11T20:31:32.912Z,101700.75
2024-01-11T20:34:04.096Z,101699.90
2024-01-11T20:36:32.458Z,101699.90
2024-01-11T20:39:00.834Z,101700.59
2024-01-11T20:41:29.116Z,101698.73
2024-01-11T20:43:57.437Z,101698.40
2024-01-11T20:46:25.812Z,101700.89
2024-01-11T20:48:54.108Z,101700.43
2024-01-11T20:51:22.279Z,101708.38
2024-01-11T20:53:51.661Z,101717.48
2024-01-11T20:56:19.873Z,101725.07
2024-01-11T20:58:48.222Z,101725.98
2024-01-11T21:01:16.706Z,101730.04
2024-01-11T21:03:45.140Z,101726.98
2024-01-11T21:06:14.625Z,101729.42
2024-01-11T21:08:43.228Z,101722.98
2024-01-11T21:11:11.512Z,101720.25
2024-01-11T21:13:39.758Z,101724.89
2024-01-11T21:16:07.900Z,101721.65
2024-01-11T21:18:36.340Z,101722.19
2024-01-11T21:21:04.859Z,101724.31
2024-01-11T21:23:33.356Z,101727.91
2024-01-11T21:26:01.596Z,101723.49
2024-01-11T21:28:30.085Z,101724.04
2024-01-11T21:30:58.412Z,101729.21
2024-01-11T21:33:26.725Z,101732.83
2024-01-11T21:35:54.978Z,101734.63
2024-01-11T21:38:23.195Z,101742.21
2024-01-11T21:40:53.022Z,101749.43
2024-01-11T21:43:21.174Z,101758.52
2024-01-11T21:45:49.225Z,101766.98
2024-01-11T21:48:17.637Z,101770.84
2024-01-11T21:50:46.011Z,101771.05
2024-01-11T21:53:14.679Z,101767.77
2024-01-11T21:55:42.949Z,101774.61
2024-01-11T21:58:11.114Z,101777.36
2024-01-11T22:00:39.322Z,101778.77
2024-01-11T22:03:08.411Z,101777.26
2024-01-11T22:05:36.870Z,101775.11
2024-01-11T22:08:05.485Z,101773.14
2024-01-11T22:10:33.523Z,101774.36
2024-01-11T22:13:01.688Z,101781.29
2024-01-11T22:15:30.166Z,101783.55
2024-01-11T22:17:58.619Z,101785.66
2024-01-11T22:20:27.195Z,101791.84
2024-01-11T22:22:55.912Z,101792.88
2024-01-11T22:25:24.397Z,101789.63
2024-01-11T22:27:53.195Z,101792.20
2024-01-11T22:30:21.693Z,101785.88
2024-01-11T22:32:50.135Z,101781.23
2024-01-11T22:35:19.600Z,101780.25
2024-01-11T22:37:47.921Z,101774.11
2024-01-11T22:40:16.096Z,101772.30
2024-01-11T22:42:44.281Z,101766.49
2024-01-11T22:45:12.438Z,101773.05
2024-01-11T22:47:41.178Z,101767.91
2024-01-11T22:50:10.103Z,101760.69
2024-01-11T22:52:40.052Z,101760.35
2024-01-11T22:55:08.302Z,101769.80
2024-01-11T22:57:36.465Z,101773.11
2024-01-11T23:00:22.035Z,101771.77
2024-01-11T23:02:51.820Z,101778.48
2024-01-11T23:05:20.926Z,101783.65
2024-01-11T23:07:49.434Z,101779.38
2024-01-11T23:10:18.364Z,101781.27
2024-01-11T23:12:46.608Z,101775.46
2024-01-11T23:15:14.776Z,101773.63
2024-01-11T23:17:43.253Z,101778.09
2024-01-11T23:20:12.296Z,101780.85
2024-01-11T23:22:40.420Z,101779.00
2024-01-11T23:25:09.229Z,101778.15
2024-01-11T23:27:37.708Z,101780.93
2024-01-11T23:30:06.594Z,101780.14
2024-01-11T23:32:34.825Z,101777.61
2024-01-11T23:35:03.238Z,101775.91
2024-01-11T23:37:31.504Z,101774.36
2024-01-11T23:39:59.694Z,101768.75
2024-01-11T23:42:27.856Z,101768.34
2024-01-11T23:44:56.234Z,101762.52
2024-01-11T23:47:24.417Z,101759.55
2024-01-11T23:49:52.723Z,101761.63
2024-01-11T23:52:20.950Z,101766.79
2024-01-11T23:54:49.024Z,101769.18
2024-01-11T23:57:17.184Z,101767.80
2024-01-11T23:59:46.099Z,101772.10
